logo
Search for airport 
image banner adimage banner adimage banner ad
image banner ad

FWKG - Kasungu

Located in Kasungu, Malawi

ICAO - FWKG, IATA - KBQ

Data provided by Airmate  

General information

Coordinates: S13°1'0" E33°28'0"
Elevation is 3470 feet MSL.
 
View others Airports in Kasungu

Operational data

Special qualification required
Current time UTC:
Current local time:
Weather at : - ( 0 km )
METAR: PASA 131832Z AUTO 25011KT 10SM FEW010 SCT023 OVC048 M03/M04 A3001 RMK AO2 FZRANO
View NOTAMs / SUP AIP / TFR affecting this airport [VIEW]
Communications frequencies: [VIEW]

Runways:

RWY identifierQFULength (ft)Width (ft)SurfaceLDA (ft)
0874°393757ASP
26254°393757ASP

Airport contact information

Address: Kasungu Malawi

Satellite view of FWKG